createdAt,value
2018-05-12T00:00:48.969Z,38.47
2018-05-12T00:03:16.418Z,38.13
2018-05-12T00:05:43.864Z,34.83
2018-05-12T00:08:11.328Z,39.40
2018-05-12T00:10:38.784Z,41.57
2018-05-12T00:13:06.246Z,35.77
2018-05-12T00:15:33.682Z,34.37
2018-05-12T00:18:01.129Z,34.20
2018-05-12T00:20:28.676Z,39.90
2018-05-12T00:22:56.069Z,41.53
2018-05-12T00:25:23.513Z,36.60
2018-05-12T00:27:50.959Z,36.63
2018-05-12T00:30:18.416Z,37.80
2018-05-12T00:32:45.864Z,36.50
2018-05-12T00:35:14.066Z,37.50
2018-05-12T00:37:41.525Z,36.80
2018-05-12T00:40:08.967Z,36.70
2018-05-12T00:42:36.413Z,36.57
2018-05-12T00:45:04.674Z,40.93
2018-05-12T00:47:32.114Z,37.37
2018-05-12T00:49:59.572Z,36.70
2018-05-12T00:52:27.009Z,36.37
2018-05-12T00:54:54.466Z,38.90
2018-05-12T00:57:21.898Z,37.43
2018-05-12T00:59:49.353Z,40.30
2018-05-12T01:02:16.786Z,37.10
2018-05-12T01:04:44.244Z,39.70
2018-05-12T01:07:11.702Z,37.77
2018-05-12T01:09:39.915Z,41.20
2018-05-12T01:12:07.346Z,39.77
2018-05-12T01:14:34.790Z,44.13
2018-05-12T01:17:02.238Z,40.07
2018-05-12T01:19:29.694Z,38.50
2018-05-12T01:21:57.226Z,42.00
2018-05-12T01:24:24.689Z,42.53
2018-05-12T01:26:52.130Z,40.10
2018-05-12T01:29:19.586Z,36.67
2018-05-12T01:31:47.021Z,36.67
2018-05-12T01:34:14.474Z,37.00
2018-05-12T01:36:41.924Z,36.67
2018-05-12T01:39:09.366Z,42.03
2018-05-12T01:41:36.833Z,38.43
2018-05-12T01:44:05.299Z,35.30
2018-05-12T01:46:33.502Z,39.80
2018-05-12T01:49:00.958Z,38.80
2018-05-12T01:51:28.425Z,39.80
2018-05-12T01:53:56.641Z,37.77
2018-05-12T01:56:25.104Z,40.00
2018-05-12T01:58:53.363Z,35.33
2018-05-12T02:01:20.815Z,36.17
2018-05-12T02:03:48.301Z,36.80
2018-05-12T02:06:15.803Z,38.10
2018-05-12T02:08:43.221Z,36.93
2018-05-12T02:11:11.326Z,41.10
2018-05-12T02:13:38.754Z,37.30
2018-05-12T02:16:06.237Z,35.83
2018-05-12T02:18:33.666Z,35.53
2018-05-12T02:21:01.113Z,34.77
2018-05-12T02:23:28.567Z,34.13
2018-05-12T02:25:56.784Z,37.93
2018-05-12T02:28:24.838Z,35.23
2018-05-12T02:30:52.282Z,37.87
2018-05-12T02:33:19.749Z,35.60
2018-05-12T02:35:47.216Z,36.73
2018-05-12T02:38:15.431Z,34.33
2018-05-12T02:40:42.901Z,34.87
2018-05-12T02:45:46.250Z,34.83
2018-05-12T02:48:13.715Z,38.50
2018-05-12T02:50:41.182Z,37.20
2018-05-12T02:53:09.398Z,37.63
2018-05-12T02:55:37.607Z,37.73
2018-05-12T02:58:05.057Z,37.43
2018-05-12T03:00:32.505Z,32.00
2018-05-12T03:02:59.958Z,34.70
2018-05-12T03:05:27.550Z,35.47
2018-05-12T03:07:54.982Z,33.37
2018-05-12T03:10:22.436Z,34.23
2018-05-12T03:12:49.905Z,40.13
2018-05-12T03:15:18.145Z,38.87
2018-05-12T03:17:45.580Z,35.60
2018-05-12T03:20:13.037Z,34.73
2018-05-12T03:22:40.515Z,35.90
2018-05-12T03:25:08.726Z,36.03
2018-05-12T03:27:36.185Z,32.57
2018-05-12T03:30:03.638Z,37.97
2018-05-12T03:32:31.857Z,35.10
2018-05-12T03:34:59.300Z,35.67
2018-05-12T03:37:26.742Z,34.80
2018-05-12T03:39:54.195Z,35.00
2018-05-12T03:42:21.734Z,40.87
2018-05-12T03:44:49.194Z,36.50
2018-05-12T03:47:16.645Z,34.40
2018-05-12T03:49:44.103Z,34.57
2018-05-12T03:52:12.315Z,38.03
2018-05-12T03:54:39.754Z,37.93
2018-05-12T03:57:07.241Z,35.30
2018-05-12T03:59:34.749Z,38.10
2018-05-12T04:02:02.207Z,34.60
2018-05-12T04:04:41.506Z,34.87
2018-05-12T04:07:20.995Z,33.80
2018-05-12T04:10:02.100Z,38.13
2018-05-12T04:12:38.024Z,38.70
2018-05-12T04:15:05.486Z,39.50
2018-05-12T04:17:33.025Z,35.27
2018-05-12T04:20:00.462Z,34.77
2018-05-12T04:22:27.958Z,37.77
2018-05-12T04:24:55.403Z,35.60
2018-05-12T04:27:23.611Z,36.30
2018-05-12T04:29:51.059Z,33.27
2018-05-12T04:32:18.508Z,39.37
2018-05-12T04:34:46.710Z,32.43
2018-05-12T04:37:14.938Z,36.13
2018-05-12T04:39:42.382Z,40.50
2018-05-12T04:42:09.827Z,37.10
2018-05-12T04:44:37.281Z,33.67
2018-05-12T04:47:04.799Z,38.10
2018-05-12T04:49:32.245Z,37.47
2018-05-12T04:51:59.690Z,37.30
2018-05-12T04:54:27.132Z,39.13
2018-05-12T04:56:54.600Z,35.73
2018-05-12T04:59:22.052Z,36.17
2018-05-12T05:01:49.521Z,32.23
2018-05-12T05:04:16.967Z,39.73
2018-05-12T05:06:44.406Z,37.07
2018-05-12T05:09:11.863Z,33.20
2018-05-12T05:11:39.302Z,32.80
2018-05-12T05:14:06.744Z,33.70
2018-05-12T05:16:34.182Z,36.07
2018-05-12T05:19:01.628Z,35.70
2018-05-12T05:21:29.090Z,37.33
2018-05-12T05:23:56.538Z,38.03
2018-05-12T05:26:23.987Z,34.73
2018-05-12T05:28:51.446Z,37.53
2018-05-12T05:31:18.890Z,33.23
2018-05-12T05:33:46.346Z,35.07
2018-05-12T05:36:13.805Z,35.60
2018-05-12T05:38:42.034Z,36.77
2018-05-12T05:41:09.474Z,35.13
2018-05-12T05:43:36.944Z,37.00
2018-05-12T05:46:04.382Z,34.63
2018-05-12T05:48:32.593Z,35.97
2018-05-12T05:51:00.046Z,34.10
2018-05-12T05:53:27.493Z,35.37
2018-05-12T05:55:54.943Z,34.40
2018-05-12T05:58:22.403Z,36.87
2018-05-12T06:00:49.866Z,38.47
2018-05-12T06:03:17.322Z,39.97
2018-05-12T06:05:45.540Z,36.97
2018-05-12T06:08:12.997Z,34.00
2018-05-12T06:13:14.306Z,35.47
2018-05-12T06:15:41.751Z,35.07
2018-05-12T06:18:09.269Z,41.27
2018-05-12T06:20:36.666Z,34.77
2018-05-12T06:23:04.150Z,33.00
2018-05-12T06:25:31.618Z,36.23
2018-05-12T06:27:59.072Z,37.17
2018-05-12T06:30:26.544Z,36.77
2018-05-12T06:32:53.985Z,34.30
2018-05-12T06:35:22.269Z,34.83
2018-05-12T06:37:50.473Z,36.60
2018-05-12T06:40:17.931Z,38.77
2018-05-12T06:42:45.384Z,37.70
2018-05-12T06:45:13.319Z,44.03
2018-05-12T06:47:40.769Z,41.10
2018-05-12T06:50:08.203Z,40.70
2018-05-12T06:52:35.672Z,43.43
2018-05-12T06:55:03.122Z,39.03
2018-05-12T06:57:31.371Z,37.93
2018-05-12T06:59:58.817Z,39.17
2018-05-12T07:02:26.294Z,36.13
2018-05-12T07:04:53.790Z,40.60
2018-05-12T07:07:21.239Z,38.43
2018-05-12T07:09:48.674Z,39.03
2018-05-12T07:12:16.182Z,41.00
2018-05-12T07:14:44.341Z,39.80
2018-05-12T07:17:11.793Z,41.17
2018-05-12T07:19:39.234Z,48.93
2018-05-12T07:22:06.703Z,53.00
2018-05-12T07:24:34.162Z,49.63
2018-05-12T07:27:01.629Z,46.93
2018-05-12T07:29:29.850Z,47.63
2018-05-12T07:31:57.334Z,47.03
2018-05-12T07:34:25.557Z,43.43
2018-05-12T07:36:52.983Z,50.40
2018-05-12T07:39:20.434Z,40.90
2018-05-12T07:41:47.892Z,39.90
2018-05-12T07:44:15.339Z,41.43
2018-05-12T07:46:42.786Z,39.50
2018-05-12T07:49:10.238Z,40.00
2018-05-12T07:51:37.794Z,45.97
2018-05-12T07:54:05.154Z,42.33
2018-05-12T07:56:32.599Z,41.50
2018-05-12T07:59:00.059Z,38.53
2018-05-12T08:01:27.518Z,37.97
2018-05-12T08:03:56.175Z,36.90
2018-05-12T08:06:23.686Z,43.23
2018-05-12T08:08:51.909Z,38.00
2018-05-12T08:11:19.398Z,35.00
2018-05-12T08:13:47.622Z,37.43
2018-05-12T08:16:15.050Z,35.40
2018-05-12T08:18:42.522Z,33.63
2018-05-12T08:21:10.729Z,39.40
2018-05-12T08:23:38.165Z,32.40
2018-05-12T08:26:05.619Z,35.03
2018-05-12T08:28:33.071Z,32.40
2018-05-12T08:31:00.586Z,33.47
2018-05-12T08:33:28.031Z,37.20
2018-05-12T08:35:55.489Z,34.00
2018-05-12T08:38:22.965Z,35.83
2018-05-12T08:40:50.451Z,39.23
2018-05-12T08:43:17.893Z,37.70
2018-05-12T08:45:45.410Z,36.97
2018-05-12T08:48:13.657Z,35.87
2018-05-12T08:50:41.080Z,32.83
2018-05-12T08:53:08.527Z,32.97
2018-05-12T08:55:35.985Z,36.37
2018-05-12T08:58:03.443Z,28.27
2018-05-12T09:00:31.691Z,27.40
2018-05-12T09:02:59.142Z,29.07
2018-05-12T09:05:27.359Z,28.40
2018-05-12T09:07:54.822Z,25.60
2018-05-12T09:10:22.273Z,25.70
2018-05-12T09:12:49.733Z,24.97
2018-05-12T09:15:17.190Z,25.13
2018-05-12T09:17:44.643Z,25.63
2018-05-12T09:20:12.070Z,25.57
2018-05-12T09:22:40.297Z,24.70
2018-05-12T09:25:07.755Z,24.27
2018-05-12T09:27:35.238Z,22.73
2018-05-12T09:30:02.681Z,26.10
2018-05-12T09:32:30.127Z,23.40
2018-05-12T09:34:57.586Z,21.97
2018-05-12T09:37:25.069Z,24.00
2018-05-12T09:39:52.525Z,22.30
2018-05-12T09:42:20.060Z,22.10
2018-05-12T09:44:47.423Z,24.63
2018-05-12T09:47:15.627Z,19.07
2018-05-12T09:49:43.108Z,16.63
2018-05-12T09:52:10.550Z,20.70
2018-05-12T09:54:38.018Z,16.73
2018-05-12T09:57:06.356Z,13.63
2018-05-12T09:59:33.844Z,13.37
2018-05-12T10:02:01.274Z,15.80
2018-05-12T10:04:28.778Z,15.60
2018-05-12T10:06:56.226Z,14.87
2018-05-12T10:09:23.670Z,12.77
2018-05-12T10:11:51.181Z,12.40
2018-05-12T10:14:18.613Z,13.83
2018-05-12T10:16:46.053Z,11.73
2018-05-12T10:19:13.502Z,15.53
2018-05-12T10:21:40.965Z,12.67
2018-05-12T10:24:08.398Z,14.87
2018-05-12T10:26:35.873Z,13.73
2018-05-12T10:29:03.325Z,15.03
2018-05-12T10:31:30.794Z,11.87
2018-05-12T10:33:58.237Z,13.27
2018-05-12T10:36:25.698Z,17.87
2018-05-12T10:38:53.148Z,15.13
2018-05-12T10:41:20.608Z,15.27
2018-05-12T10:43:48.043Z,14.17
2018-05-12T10:46:15.553Z,16.20
2018-05-12T10:48:42.995Z,16.57
2018-05-12T10:51:10.466Z,17.37
2018-05-12T10:53:37.921Z,15.53
2018-05-12T10:56:05.387Z,14.03
2018-05-12T10:58:32.846Z,13.57
2018-05-12T11:01:00.274Z,16.77
2018-05-12T11:03:27.746Z,12.20
2018-05-12T11:05:55.975Z,12.83
2018-05-12T11:08:23.433Z,11.50
2018-05-12T11:10:51.689Z,11.87
2018-05-12T11:13:19.126Z,13.17
2018-05-12T11:15:47.617Z,16.10
2018-05-12T11:18:15.086Z,15.57
2018-05-12T11:20:42.562Z,11.87
2018-05-12T11:23:10.018Z,10.97
2018-05-12T11:25:37.541Z,10.13
2018-05-12T11:28:05.034Z,11.73
2018-05-12T11:30:32.492Z,11.77
2018-05-12T11:32:59.946Z,12.63
2018-05-12T11:35:27.395Z,11.13
2018-05-12T11:37:54.853Z,11.40
2018-05-12T11:40:22.360Z,10.07
2018-05-12T11:42:49.816Z,8.97
2018-05-12T11:45:17.257Z,9.77
2018-05-12T11:47:44.730Z,10.00
2018-05-12T11:50:12.962Z,11.67
2018-05-12T11:52:40.374Z,10.83
2018-05-12T11:55:08.598Z,9.67
2018-05-12T11:57:36.080Z,12.53
2018-05-12T12:00:03.559Z,8.47
2018-05-12T12:02:31.067Z,8.73
2018-05-12T12:04:58.457Z,8.40
2018-05-12T12:07:25.907Z,8.90
2018-05-12T12:09:53.354Z,8.00
2018-05-12T12:12:20.800Z,7.30
2018-05-12T12:14:48.258Z,6.60
2018-05-12T12:17:15.682Z,9.00
2018-05-12T12:19:43.127Z,9.83
2018-05-12T12:22:10.568Z,7.90
2018-05-12T12:24:38.074Z,7.53
2018-05-12T12:27:05.557Z,6.20
2018-05-12T12:29:33.017Z,8.53
2018-05-12T12:32:00.501Z,12.20
2018-05-12T12:34:27.947Z,10.90
2018-05-12T12:36:55.402Z,9.90
2018-05-12T12:39:22.857Z,10.83
2018-05-12T12:41:50.326Z,10.20
2018-05-12T12:44:17.770Z,9.60
2018-05-12T12:46:45.216Z,8.20
2018-05-12T12:49:12.686Z,6.90
2018-05-12T12:51:40.992Z,7.53
2018-05-12T12:54:08.433Z,12.03
2018-05-12T12:56:35.885Z,8.80
2018-05-12T12:59:03.387Z,8.23
2018-05-12T13:01:31.609Z,8.20
2018-05-12T13:03:59.086Z,7.67
2018-05-12T13:06:27.275Z,7.90
2018-05-12T13:08:54.727Z,9.60
2018-05-12T13:11:22.185Z,7.77
2018-05-12T13:13:49.637Z,8.20
2018-05-12T13:19:07.669Z,7.33
2018-05-12T13:21:35.153Z,7.50
2018-05-12T13:24:03.329Z,8.40
2018-05-12T13:26:30.770Z,7.50
2018-05-12T13:28:58.227Z,9.23
2018-05-12T13:31:25.683Z,9.33
2018-05-12T13:33:53.130Z,8.60
2018-05-12T13:36:20.600Z,8.17
2018-05-12T13:38:48.063Z,9.20
2018-05-12T13:41:16.276Z,8.20
2018-05-12T13:43:43.726Z,8.57
2018-05-12T13:46:11.968Z,8.80
2018-05-12T13:48:39.403Z,7.07
2018-05-12T13:51:06.876Z,8.30
2018-05-12T13:53:34.333Z,9.13
2018-05-12T13:56:01.886Z,7.40
2018-05-12T13:58:29.320Z,9.77
2018-05-12T14:00:56.862Z,9.40
2018-05-12T14:03:24.342Z,9.00
2018-05-12T14:05:52.542Z,8.40
2018-05-12T14:08:19.980Z,9.53
2018-05-12T14:10:47.434Z,9.77
2018-05-12T14:13:14.880Z,8.93
2018-05-12T14:15:42.321Z,8.00
2018-05-12T14:18:09.779Z,8.13
2018-05-12T14:20:37.210Z,7.33
2018-05-12T14:23:05.607Z,7.27
2018-05-12T14:25:33.809Z,7.47
2018-05-12T14:28:01.266Z,7.70
2018-05-12T14:30:28.851Z,9.07
2018-05-12T14:32:57.222Z,8.73
2018-05-12T14:35:25.423Z,7.13
2018-05-12T14:37:52.862Z,6.97
2018-05-12T14:40:20.313Z,6.30
2018-05-12T14:42:47.770Z,6.30
2018-05-12T14:45:15.297Z,6.37
2018-05-12T14:47:42.740Z,6.63
2018-05-12T14:50:10.173Z,6.37
2018-05-12T14:52:37.640Z,6.17
2018-05-12T14:55:05.083Z,6.27
2018-05-12T14:57:32.538Z,6.37
2018-05-12T14:59:59.973Z,6.37
2018-05-12T15:02:27.481Z,6.07
2018-05-12T15:04:54.873Z,5.30
2018-05-12T15:07:22.307Z,5.57
2018-05-12T15:09:51.257Z,5.10
2018-05-12T15:12:18.704Z,5.03
2018-05-12T15:14:46.218Z,5.53
2018-05-12T15:17:13.720Z,4.93
2018-05-12T15:19:41.167Z,6.13
2018-05-12T15:22:08.611Z,5.50
2018-05-12T15:24:36.109Z,5.70
2018-05-12T15:27:03.565Z,5.57
2018-05-12T15:29:30.993Z,6.07
2018-05-12T15:31:58.446Z,5.53
2018-05-12T15:34:25.907Z,5.70
2018-05-12T15:36:53.392Z,4.67
2018-05-12T15:39:21.634Z,5.00
2018-05-12T15:41:50.012Z,6.63
2018-05-12T15:44:17.439Z,6.07
2018-05-12T15:46:44.941Z,6.47
2018-05-12T15:49:12.367Z,6.00
2018-05-12T15:51:39.820Z,5.60
2018-05-12T15:54:07.272Z,7.17
2018-05-12T15:56:34.718Z,5.30
2018-05-12T15:59:02.166Z,5.07
2018-05-12T16:01:29.626Z,5.63
2018-05-12T16:03:57.082Z,5.10
2018-05-12T16:06:24.529Z,4.80
2018-05-12T16:08:51.954Z,5.10
2018-05-12T16:11:19.385Z,5.07
2018-05-12T16:13:46.831Z,5.37
2018-05-12T16:16:14.319Z,4.50
2018-05-12T16:18:42.540Z,5.50
2018-05-12T16:21:09.967Z,5.30
2018-05-12T16:23:37.411Z,4.90
2018-05-12T16:26:04.834Z,5.00
2018-05-12T16:28:32.269Z,5.30
2018-05-12T16:30:59.730Z,5.60
2018-05-12T16:33:27.182Z,5.10
2018-05-12T16:35:54.602Z,5.77
2018-05-12T16:38:22.058Z,4.70
2018-05-12T16:40:49.504Z,5.50
2018-05-12T16:43:16.966Z,5.47
2018-05-12T16:45:44.424Z,6.10
2018-05-12T16:48:11.879Z,4.87
2018-05-12T16:50:39.305Z,5.30
2018-05-12T16:53:06.741Z,5.87
2018-05-12T16:55:34.193Z,6.20
2018-05-12T16:58:01.641Z,7.40
2018-05-12T17:00:29.099Z,5.50
2018-05-12T17:02:57.306Z,5.33
2018-05-12T17:05:25.086Z,5.10
2018-05-12T17:07:52.518Z,6.83
2018-05-12T17:10:19.950Z,5.23
2018-05-12T17:12:47.391Z,5.37
2018-05-12T17:15:14.817Z,5.40
2018-05-12T17:17:42.318Z,5.13
2018-05-12T17:20:09.838Z,5.20
2018-05-12T17:22:37.294Z,5.63
2018-05-12T17:25:04.722Z,5.83
2018-05-12T17:27:32.174Z,6.30
2018-05-12T17:29:59.703Z,6.73
2018-05-12T17:32:27.141Z,18.27
2018-05-12T17:34:54.569Z,9.70
2018-05-12T17:37:22.010Z,7.57
2018-05-12T17:39:49.446Z,7.43
2018-05-12T17:42:16.913Z,6.50
2018-05-12T17:44:44.370Z,9.60
2018-05-12T17:47:11.813Z,6.03
2018-05-12T17:49:39.241Z,7.63
2018-05-12T17:52:06.673Z,6.73
2018-05-12T17:54:34.122Z,6.00
2018-05-12T17:57:01.570Z,5.90
2018-05-12T17:59:29.030Z,8.87
2018-05-12T18:01:56.466Z,6.00
2018-05-12T18:04:23.963Z,4.90
2018-05-12T18:06:51.462Z,6.27
2018-05-12T18:09:19.703Z,5.90
2018-05-12T18:11:47.135Z,6.57
2018-05-12T18:14:14.571Z,6.50
2018-05-12T18:16:42.046Z,6.10
2018-05-12T18:19:09.514Z,7.23
2018-05-12T18:21:36.971Z,7.93
2018-05-12T18:24:05.205Z,26.83
2018-05-12T18:26:32.671Z,6.90
2018-05-12T18:29:00.889Z,7.27
2018-05-12T18:31:28.333Z,7.37
2018-05-12T18:33:55.787Z,5.87
2018-05-12T18:36:23.230Z,9.27
2018-05-12T18:38:50.699Z,6.90
2018-05-12T18:41:18.231Z,6.57
2018-05-12T18:43:45.769Z,6.80
2018-05-12T18:46:13.227Z,7.00
2018-05-12T18:48:40.667Z,6.40
2018-05-12T18:51:08.095Z,7.83
2018-05-12T18:53:35.554Z,9.93
2018-05-12T18:56:03.000Z,6.57
2018-05-12T18:58:30.450Z,6.13
2018-05-12T19:00:58.651Z,5.97
2018-05-12T19:03:26.100Z,7.93
2018-05-12T19:05:53.539Z,8.97
2018-05-12T19:08:21.022Z,7.60
2018-05-12T19:10:48.566Z,7.60
2018-05-12T19:13:16.014Z,7.03
2018-05-12T19:15:43.459Z,6.90
2018-05-12T19:18:10.913Z,6.43
2018-05-12T19:20:39.107Z,8.30
2018-05-12T19:23:06.558Z,8.97
2018-05-12T19:25:34.030Z,8.93
2018-05-12T19:28:01.511Z,7.97
2018-05-12T19:30:28.945Z,7.93
2018-05-12T19:32:56.394Z,9.97
2018-05-12T19:35:24.595Z,8.40
2018-05-12T19:37:52.027Z,7.20
2018-05-12T19:40:19.467Z,9.60
2018-05-12T19:42:46.923Z,7.07
2018-05-12T19:45:14.483Z,9.27
2018-05-12T19:47:41.917Z,8.03
2018-05-12T19:50:09.362Z,7.60
2018-05-12T19:52:36.793Z,7.10
2018-05-12T19:55:04.249Z,7.80
2018-05-12T19:57:31.712Z,7.47
2018-05-12T19:59:59.146Z,7.47
2018-05-12T20:02:26.584Z,6.90
2018-05-12T20:04:54.141Z,7.23
2018-05-12T20:07:22.258Z,6.87
2018-05-12T20:09:49.716Z,6.77
2018-05-12T20:12:21.978Z,6.70
2018-05-12T20:14:49.412Z,7.93
2018-05-12T20:17:16.857Z,7.67
2018-05-12T20:19:44.341Z,7.87
2018-05-12T20:22:11.784Z,9.50
2018-05-12T20:24:39.242Z,7.67
2018-05-12T20:27:07.433Z,6.57
2018-05-12T20:29:34.875Z,9.30
2018-05-12T20:32:02.342Z,6.73
2018-05-12T20:34:29.799Z,6.43
2018-05-12T20:36:57.293Z,7.93
2018-05-12T20:39:24.730Z,8.90
2018-05-12T20:41:52.154Z,7.33
2018-05-12T20:44:20.364Z,7.93
2018-05-12T20:46:47.797Z,7.50
2018-05-12T20:49:15.249Z,7.80
2018-05-12T20:51:42.698Z,8.33
2018-05-12T20:54:10.157Z,8.70
2018-05-12T20:56:37.617Z,10.23
2018-05-12T20:59:05.079Z,8.03
2018-05-12T21:01:33.274Z,8.63
2018-05-12T21:04:00.724Z,8.43
2018-05-12T21:06:28.174Z,8.00
2018-05-12T21:08:55.619Z,9.77
2018-05-12T21:11:23.118Z,8.67
2018-05-12T21:13:50.552Z,8.23
2018-05-12T21:16:18.751Z,8.17
2018-05-12T21:18:46.206Z,9.70
2018-05-12T21:21:13.660Z,8.10
2018-05-12T21:23:41.106Z,9.90
2018-05-12T21:26:08.550Z,7.60
2018-05-12T21:28:36.002Z,8.40
2018-05-12T21:31:03.458Z,7.77
2018-05-12T21:33:32.137Z,8.17
2018-05-12T21:36:00.357Z,9.57
2018-05-12T21:38:27.789Z,10.60
2018-05-12T21:40:55.250Z,9.77
2018-05-12T21:43:23.443Z,8.83
2018-05-12T21:45:50.915Z,10.40
2018-05-12T21:48:18.339Z,9.33
2018-05-12T21:50:46.546Z,8.70
2018-05-12T21:53:13.986Z,8.90
2018-05-12T21:55:41.458Z,9.40
2018-05-12T21:58:08.897Z,9.10
2018-05-12T22:00:36.338Z,8.80
2018-05-12T22:03:03.770Z,8.60
2018-05-12T22:05:31.225Z,10.70
2018-05-12T22:07:58.745Z,9.93
2018-05-12T22:10:26.142Z,9.30
2018-05-12T22:12:54.355Z,8.90
2018-05-12T22:15:21.832Z,9.20
2018-05-12T22:17:49.259Z,10.17
2018-05-12T22:20:16.725Z,11.97
2018-05-12T22:22:44.915Z,9.57
2018-05-12T22:25:12.372Z,10.07
2018-05-12T22:27:39.813Z,14.47
2018-05-12T22:30:07.286Z,8.77
2018-05-12T22:32:34.731Z,9.77
2018-05-12T22:35:02.184Z,8.70
2018-05-12T22:37:29.622Z,8.67
2018-05-12T22:39:57.073Z,11.43
2018-05-12T22:42:24.528Z,10.20
2018-05-12T22:44:52.748Z,10.07
2018-05-12T22:47:20.327Z,8.53
2018-05-12T22:49:47.748Z,10.33
2018-05-12T22:52:15.220Z,10.20
2018-05-12T22:54:42.665Z,9.87
2018-05-12T22:57:10.873Z,8.40
2018-05-12T22:59:38.314Z,9.93
2018-05-12T23:02:05.750Z,11.27
2018-05-12T23:04:33.190Z,9.23
2018-05-12T23:07:01.450Z,11.40
2018-05-12T23:09:28.886Z,9.93
2018-05-12T23:11:56.316Z,10.70
2018-05-12T23:14:23.769Z,10.63
2018-05-12T23:16:51.210Z,9.90
2018-05-12T23:19:18.668Z,10.13
2018-05-12T23:21:46.117Z,9.97
2018-05-12T23:24:13.567Z,11.03
2018-05-12T23:26:41.037Z,11.00
2018-05-12T23:29:08.489Z,10.90
2018-05-12T23:31:36.693Z,10.50
2018-05-12T23:34:04.146Z,10.70
2018-05-12T23:36:31.583Z,11.13
2018-05-12T23:38:59.031Z,10.47
2018-05-12T23:41:26.494Z,10.63
2018-05-12T23:43:53.933Z,9.80
2018-05-12T23:46:21.390Z,10.60
2018-05-12T23:48:48.851Z,11.67
2018-05-12T23:51:17.115Z,11.47
2018-05-12T23:53:44.510Z,11.13
2018-05-12T23:56:11.965Z,10.70
2018-05-12T23:58:39.462Z,9.70
